Terminal Aerodrome Forecast
Issued by NWS

Home | Current Version | Previous Version | Text Only | Print | Product List | Glossary On
Versions: 1 2 3 4 5 6 7 8 9 10 11 12 13
000
FTUS45 KPSR 251121
TAFIPL
TAF
KIPL 251121Z 2512/2612 28008KT P6SM SKC
     FM251700 29012G22KT P6SM SKC
     FM252100 27020G30KT P6SM SKC
     FM260700 27014G24KT P6SM SKC=

USA.gov is the U.S. government's official web portal to all federal, state and local government web resources and services.